Pittston, PA (18640)

10:20 AM EDT on May 03, 2016 (GMT -0400)
West Wyoming | | Change Station

Elev 745 ft 41.32 °N, 75.85 °W | Updated 10 minutes ago

Overcast
Overcast
48.4 °F
Feels Like 48 °F
N
2.2
Wind Variable Wind from SSW

Today
High -- | Low -- °F
--% Chance of Precip.
Yesterday
High -- | Low -- °F
Precip. -- in
Pressure 29.85 in
Visibility 6.0 miles
Clouds Scattered Clouds 500 ft
Overcast 1000 ft
Windchill 48 °F
Dew Point 47 °F
Humidity 95%
Rainfall 0.00 in
Snow Depth Not available.
5:57 AM 8:03 PM
Waning Crescent, 15% visible
SPECI KAVP 031411Z 04004KT 6SM BR SCT005 OVC010 09/08 A2985 RMK AO2 RAE01 P0000 T00940078
Pressure 29.85 in
Visibility 6.0 miles
Clouds Scattered Clouds 500 ft
Overcast 1000 ft
Windchill 48 °F
Dew Point 47 °F
Humidity 95%
Rainfall 0.00 in
Snow Depth Not available.
5:57 AM 8:03 PM
Waning Crescent, 15% visible
SPECI KAVP 031411Z 04004KT 6SM BR SCT005 OVC010 09/08 A2985 RMK AO2 RAE01 P0000 T00940078

10-Day Weather Forecast

Almanac

Astronomy

May. 03, 2016 Rise Set
Actual Time
Civil Twilight
Nautical Twilight
Astronomical Twilight
Moon
Length of Visible Light
Length of Day
Tomorrow will be .
, % of the Moon is Illuminated

Today's Extremes

State Highs State Lows

Community

WunderPhotos

Upload Photos

1,909,599 photos uploaded!

WunderBlog® & News

Nearby

Air Quality

  Air Quality AQ Index Pollutant
Not available.

Snow Depth

Station Depth Elevation

Earthquake Activity

City Distance Mag. Time & Date
Minimum magnitude displayed is 2.5.

Coastal Water Temperatures

Place Temperature

Stations

Nearby Weather Stations

Station Location Temp. Windchill Dew Point Humidity Wind Precip. Elev Updated Type
                   

Watches & Warnings

There are currently no watches in effect.